createdAt,value
2022-12-20T00:00:01.678Z,13.60
2022-12-20T00:02:30.209Z,9.30
2022-12-20T00:04:59.361Z,8.50
2022-12-20T00:07:27.455Z,14.00
2022-12-20T00:09:55.490Z,7.90
2022-12-20T00:12:24.135Z,11.60
2022-12-20T00:14:52.165Z,11.90
2022-12-20T00:17:20.278Z,11.50
2022-12-20T00:19:48.468Z,9.70
2022-12-20T00:22:16.429Z,11.70
2022-12-20T00:24:44.817Z,10.60
2022-12-20T00:27:12.833Z,10.20
2022-12-20T00:29:41.349Z,12.10
2022-12-20T00:32:09.435Z,11.70
2022-12-20T00:34:37.547Z,10.60
2022-12-20T00:37:05.650Z,11.90
2022-12-20T00:39:33.725Z,13.20
2022-12-20T00:42:01.760Z,10.90
2022-12-20T00:44:30.090Z,11.50
2022-12-20T00:46:58.348Z,9.60
2022-12-20T00:49:26.412Z,9.40
2022-12-20T00:51:54.368Z,11.30
2022-12-20T00:54:22.393Z,10.90
2022-12-20T00:56:50.996Z,13.10
2022-12-20T00:59:19.140Z,11.80
2022-12-20T01:01:47.933Z,12.70
2022-12-20T01:04:16.218Z,13.90
2022-12-20T01:06:44.308Z,13.00
2022-12-20T01:09:12.868Z,12.00
2022-12-20T01:11:41.044Z,11.60
2022-12-20T01:14:12.428Z,12.20
2022-12-20T01:16:43.095Z,11.40
2022-12-20T01:19:12.383Z,11.50
2022-12-20T01:21:45.092Z,10.50
2022-12-20T01:24:17.485Z,12.00
2022-12-20T01:26:45.641Z,8.40
2022-12-20T01:29:14.580Z,10.80
2022-12-20T01:31:44.044Z,10.00
2022-12-20T01:34:12.511Z,11.20
2022-12-20T01:36:41.297Z,12.10
2022-12-20T01:39:11.961Z,11.70
2022-12-20T01:41:40.830Z,11.50
2022-12-20T01:44:18.013Z,14.50
2022-12-20T01:46:47.243Z,10.90
2022-12-20T01:49:25.193Z,11.10
2022-12-20T01:52:13.902Z,11.10
2022-12-20T01:54:47.096Z,10.70
2022-12-20T01:57:18.667Z,12.70
2022-12-20T01:59:48.477Z,10.20
2022-12-20T02:02:16.819Z,9.40
2022-12-20T02:04:45.081Z,10.10
2022-12-20T02:07:18.032Z,9.40
2022-12-20T02:09:46.799Z,11.80
2022-12-20T02:12:22.749Z,13.80
2022-12-20T02:14:54.101Z,12.00
2022-12-20T02:17:45.703Z,9.60
2022-12-20T02:20:30.065Z,12.30
2022-12-20T02:23:08.438Z,9.00
2022-12-20T02:25:55.905Z,10.70
2022-12-20T02:28:24.132Z,11.80
2022-12-20T02:30:56.051Z,12.00
2022-12-20T02:33:25.431Z,10.10
2022-12-20T02:35:53.539Z,12.70
2022-12-20T02:38:35.840Z,10.70
2022-12-20T02:41:13.275Z,11.70
2022-12-20T02:44:02.568Z,8.10
2022-12-20T02:46:32.726Z,11.00
2022-12-20T02:49:02.096Z,8.80
2022-12-20T02:51:30.679Z,10.00
2022-12-20T02:53:59.732Z,11.10
2022-12-20T02:56:30.893Z,8.50
2022-12-20T02:59:03.118Z,11.40
2022-12-20T03:01:33.981Z,8.90
2022-12-20T03:04:04.048Z,10.10
2022-12-20T03:06:32.239Z,9.90
2022-12-20T03:09:00.406Z,8.30
2022-12-20T03:11:29.382Z,12.10
2022-12-20T03:13:57.828Z,8.20
2022-12-20T03:16:26.038Z,9.10
2022-12-20T03:18:54.331Z,10.00
2022-12-20T03:21:22.777Z,10.70
2022-12-20T03:23:51.032Z,10.70
2022-12-20T03:26:19.565Z,8.40
2022-12-20T03:28:52.516Z,10.10
2022-12-20T03:31:21.847Z,11.10
2022-12-20T03:33:52.793Z,10.40
2022-12-20T03:36:23.772Z,8.50
2022-12-20T03:38:55.618Z,8.90
2022-12-20T03:41:25.930Z,14.00
2022-12-20T03:43:54.306Z,9.40
2022-12-20T03:46:23.719Z,11.30
2022-12-20T03:48:51.969Z,10.90
2022-12-20T03:51:20.430Z,8.20
2022-12-20T03:53:48.564Z,10.70
2022-12-20T03:56:17.424Z,8.50
2022-12-20T03:58:45.887Z,7.00
2022-12-20T04:01:36.856Z,10.00
2022-12-20T04:04:05.910Z,7.90
2022-12-20T04:06:34.049Z,8.30
2022-12-20T04:09:02.487Z,11.20
2022-12-20T04:11:34.658Z,9.80
2022-12-20T04:14:15.298Z,10.40
2022-12-20T04:16:44.980Z,10.30
2022-12-20T04:19:13.439Z,10.70
2022-12-20T04:21:46.930Z,9.70
2022-12-20T04:24:15.634Z,9.80
2022-12-20T04:26:52.234Z,9.10
2022-12-20T04:29:20.532Z,6.30
2022-12-20T04:31:49.373Z,7.90
2022-12-20T04:34:17.736Z,9.60
2022-12-20T04:36:45.892Z,7.00
2022-12-20T04:39:18.786Z,8.70
2022-12-20T04:42:12.843Z,7.60
2022-12-20T04:44:41.888Z,7.30
2022-12-20T04:47:11.390Z,9.60
2022-12-20T04:49:39.496Z,10.50
2022-12-20T04:52:26.770Z,8.50
2022-12-20T04:54:54.978Z,10.90
2022-12-20T04:57:27.339Z,11.80
2022-12-20T04:59:55.519Z,4.70
2022-12-20T05:02:23.693Z,7.50
2022-12-20T05:04:54.803Z,12.20
2022-12-20T05:07:23.234Z,7.50
2022-12-20T05:09:53.997Z,15.90
2022-12-20T05:12:22.351Z,11.50
2022-12-20T05:14:50.385Z,10.80
2022-12-20T05:17:20.913Z,12.80
2022-12-20T05:19:48.964Z,11.60
2022-12-20T05:22:36.369Z,11.30
2022-12-20T05:25:26.241Z,11.60
2022-12-20T05:27:55.635Z,7.00
2022-12-20T05:30:25.541Z,9.40
2022-12-20T05:32:54.246Z,9.70
2022-12-20T05:35:22.940Z,10.00
2022-12-20T05:37:55.359Z,11.00
2022-12-20T05:40:23.903Z,10.30
2022-12-20T05:42:52.177Z,12.00
2022-12-20T05:45:22.129Z,12.70
2022-12-20T05:47:57.241Z,9.60
2022-12-20T05:50:26.327Z,6.30
2022-12-20T05:53:24.099Z,9.30
2022-12-20T05:55:54.598Z,9.20
2022-12-20T05:58:28.191Z,8.20
2022-12-20T06:01:03.152Z,6.30
2022-12-20T06:03:32.344Z,12.00
2022-12-20T06:06:01.595Z,9.30
2022-12-20T06:08:34.015Z,9.50
2022-12-20T06:11:05.341Z,11.30
2022-12-20T06:13:39.565Z,15.90
2022-12-20T06:16:09.426Z,18.00
2022-12-20T06:18:37.582Z,17.70
2022-12-20T06:21:06.637Z,17.90
2022-12-20T06:23:34.810Z,14.20
2022-12-20T06:26:13.371Z,9.60
2022-12-20T06:28:54.669Z,9.70
2022-12-20T06:31:26.870Z,9.00
2022-12-20T06:33:56.425Z,11.20
2022-12-20T06:36:31.656Z,10.00
2022-12-20T06:39:07.643Z,13.30
2022-12-20T06:41:41.128Z,14.70
2022-12-20T06:44:09.330Z,10.50
2022-12-20T06:46:37.545Z,10.00
2022-12-20T06:49:05.814Z,11.60
2022-12-20T06:51:34.245Z,12.20
2022-12-20T06:54:03.796Z,11.90
2022-12-20T06:56:41.037Z,12.60
2022-12-20T06:59:11.490Z,9.50
2022-12-20T07:01:39.782Z,10.80
2022-12-20T07:04:08.058Z,8.20
2022-12-20T07:06:36.168Z,13.70
2022-12-20T07:09:04.625Z,12.60
2022-12-20T07:11:32.746Z,11.10
2022-12-20T07:14:00.906Z,10.10
2022-12-20T07:16:29.201Z,12.40
2022-12-20T07:18:57.592Z,9.60
2022-12-20T07:21:26.067Z,11.20
2022-12-20T07:23:55.628Z,12.80
2022-12-20T07:26:23.848Z,14.00
2022-12-20T07:28:52.003Z,14.40
2022-12-20T07:31:20.306Z,15.40
2022-12-20T07:33:48.807Z,14.30
2022-12-20T07:36:17.145Z,11.20
2022-12-20T07:38:45.287Z,15.90
2022-12-20T07:41:15.080Z,12.50
2022-12-20T07:43:44.110Z,12.30
2022-12-20T07:46:15.720Z,13.60
2022-12-20T07:48:44.932Z,21.90
2022-12-20T07:51:18.970Z,14.30
2022-12-20T07:56:15.582Z,11.40
2022-12-20T07:58:44.558Z,10.50
2022-12-20T08:01:13.227Z,10.20
2022-12-20T08:03:46.751Z,10.00
2022-12-20T08:06:15.646Z,8.70
2022-12-20T08:08:45.813Z,12.10
2022-12-20T08:11:14.625Z,9.00
2022-12-20T08:13:46.599Z,7.30
2022-12-20T08:16:15.771Z,6.80
2022-12-20T08:18:43.873Z,7.00
2022-12-20T08:21:14.909Z,7.00
2022-12-20T08:23:43.629Z,5.00
2022-12-20T08:26:11.888Z,6.50
2022-12-20T08:28:40.034Z,8.30
2022-12-20T08:31:09.157Z,6.80
2022-12-20T08:33:38.355Z,6.50
2022-12-20T08:36:11.999Z,8.20
2022-12-20T08:38:40.780Z,7.00
2022-12-20T08:41:11.320Z,7.00
2022-12-20T08:43:40.038Z,7.20
2022-12-20T08:46:12.399Z,6.10
2022-12-20T08:48:40.679Z,8.00
2022-12-20T08:51:09.896Z,6.70
2022-12-20T08:53:38.920Z,7.10
2022-12-20T08:56:08.367Z,8.70
2022-12-20T08:58:37.163Z,7.50
2022-12-20T09:01:07.282Z,7.60
2022-12-20T09:03:36.492Z,9.80
2022-12-20T09:06:07.008Z,9.20
2022-12-20T09:08:39.896Z,8.30
2022-12-20T09:11:10.314Z,6.30
2022-12-20T09:13:43.642Z,5.70
2022-12-20T09:16:14.048Z,11.80
2022-12-20T09:18:42.692Z,10.50
2022-12-20T09:21:11.632Z,12.90
2022-12-20T09:23:39.970Z,12.10
2022-12-20T09:26:11.089Z,9.70
2022-12-20T09:28:40.111Z,8.20
2022-12-20T09:31:11.337Z,9.10
2022-12-20T09:33:39.540Z,8.90
2022-12-20T09:36:10.924Z,8.40
2022-12-20T09:38:39.101Z,8.60
2022-12-20T09:41:08.399Z,9.40
2022-12-20T09:43:37.551Z,8.30
2022-12-20T09:46:05.740Z,8.60
2022-12-20T09:48:40.524Z,10.90
2022-12-20T09:51:24.346Z,8.60
2022-12-20T09:53:55.117Z,9.10
2022-12-20T09:56:47.200Z,8.10
2022-12-20T09:59:18.259Z,9.10
2022-12-20T10:01:47.598Z,12.90
2022-12-20T10:04:21.811Z,7.00
2022-12-20T10:06:59.124Z,9.20
2022-12-20T10:09:38.904Z,10.30
2022-12-20T10:12:13.046Z,9.80
2022-12-20T10:17:12.242Z,9.60
2022-12-20T10:19:58.957Z,8.40
2022-12-20T10:22:34.108Z,8.90
2022-12-20T10:25:12.063Z,9.20
2022-12-20T10:27:43.795Z,7.80
2022-12-20T10:30:16.296Z,11.20
2022-12-20T10:32:52.008Z,8.80
2022-12-20T10:35:25.081Z,9.70
2022-12-20T10:38:08.940Z,9.60
2022-12-20T10:41:18.789Z,12.80
2022-12-20T10:43:27.755Z,7.70
2022-12-20T10:46:01.651Z,9.00
2022-12-20T10:51:00.044Z,9.10
2022-12-20T10:53:29.083Z,11.70
2022-12-20T10:56:15.815Z,8.50
2022-12-20T10:58:51.336Z,8.10
2022-12-20T11:01:20.606Z,9.90
2022-12-20T11:03:53.902Z,10.80
2022-12-20T11:06:23.693Z,10.40
2022-12-20T11:08:58.749Z,8.30
2022-12-20T11:11:29.440Z,8.50
2022-12-20T11:14:13.273Z,10.20
2022-12-20T11:16:41.891Z,13.30
2022-12-20T11:19:25.533Z,10.50
2022-12-20T11:21:56.736Z,9.00
2022-12-20T11:24:47.824Z,9.30
2022-12-20T11:27:24.854Z,8.80
2022-12-20T11:30:03.097Z,9.00
2022-12-20T11:32:48.625Z,7.70
2022-12-20T11:35:17.239Z,7.50
2022-12-20T11:38:09.294Z,6.80
2022-12-20T11:40:42.577Z,9.00
2022-12-20T11:43:10.699Z,6.80
2022-12-20T11:45:57.140Z,5.90
2022-12-20T11:48:25.244Z,6.00
2022-12-20T11:50:59.517Z,6.50
2022-12-20T11:55:58.640Z,6.70
2022-12-20T11:58:33.893Z,9.70
2022-12-20T12:01:07.471Z,11.70
2022-12-20T12:03:40.120Z,6.40
2022-12-20T12:06:12.220Z,7.10
2022-12-20T12:08:47.234Z,6.30
2022-12-20T12:12:04.629Z,7.50
2022-12-20T12:14:17.254Z,6.10
2022-12-20T12:16:48.741Z,5.90
2022-12-20T12:19:17.111Z,6.40
2022-12-20T12:21:56.611Z,6.80
2022-12-20T12:24:31.083Z,6.00
2022-12-20T12:27:00.135Z,8.30
2022-12-20T12:29:30.026Z,6.50
2022-12-20T12:32:01.361Z,6.20
2022-12-20T12:34:29.514Z,8.60
2022-12-20T12:37:10.399Z,10.20
2022-12-20T12:39:41.629Z,12.00
2022-12-20T12:42:28.946Z,7.50
2022-12-20T12:45:03.692Z,6.90
2022-12-20T12:47:37.919Z,7.20
2022-12-20T12:50:09.791Z,11.90
2022-12-20T12:52:43.353Z,10.50
2022-12-20T12:55:30.505Z,11.00
2022-12-20T12:57:59.071Z,10.20
2022-12-20T13:00:46.173Z,6.10
2022-12-20T13:03:16.912Z,6.90
2022-12-20T13:05:45.306Z,7.10
2022-12-20T13:08:17.964Z,7.50
2022-12-20T13:10:46.040Z,7.20
2022-12-20T13:13:21.426Z,6.90
2022-12-20T13:15:51.153Z,6.60
2022-12-20T13:18:23.058Z,7.00
2022-12-20T13:21:09.966Z,8.60
2022-12-20T13:23:38.025Z,9.10
2022-12-20T13:26:26.166Z,8.60
2022-12-20T13:28:54.473Z,8.50
2022-12-20T13:31:22.613Z,7.90
2022-12-20T13:33:51.940Z,5.70
2022-12-20T13:36:31.481Z,7.00
2022-12-20T13:39:00.942Z,7.00
2022-12-20T13:41:44.223Z,8.10
2022-12-20T13:44:15.126Z,12.10
2022-12-20T13:46:47.140Z,11.80
2022-12-20T13:49:24.119Z,9.40
2022-12-20T13:52:10.731Z,7.90
2022-12-20T13:54:45.909Z,6.70
2022-12-20T13:57:18.423Z,9.20
2022-12-20T13:59:47.628Z,10.60
2022-12-20T14:02:25.183Z,10.00
2022-12-20T14:04:57.431Z,10.30
2022-12-20T14:07:26.732Z,7.70
2022-12-20T14:09:59.672Z,12.70
2022-12-20T14:12:35.947Z,10.40
2022-12-20T14:15:20.765Z,14.40
2022-12-20T14:17:49.033Z,11.70
2022-12-20T14:20:22.843Z,14.50
2022-12-20T14:23:02.473Z,11.50
2022-12-20T14:25:39.042Z,12.80
2022-12-20T14:28:20.120Z,13.10
2022-12-20T14:30:53.243Z,12.80
2022-12-20T14:33:28.314Z,9.40
2022-12-20T14:35:56.367Z,10.50
2022-12-20T14:38:28.795Z,12.20
2022-12-20T14:40:56.975Z,10.40
2022-12-20T14:43:32.824Z,10.20
2022-12-20T14:46:14.348Z,12.90
2022-12-20T14:48:42.535Z,13.60
2022-12-20T14:51:10.571Z,15.40
2022-12-20T14:53:43.193Z,10.50
2022-12-20T14:56:19.205Z,12.80
2022-12-20T14:58:50.065Z,18.20
2022-12-20T15:01:18.134Z,58.60
2022-12-20T15:03:51.029Z,22.60
2022-12-20T15:06:32.501Z,19.20
2022-12-20T15:09:00.643Z,13.80
2022-12-20T15:11:28.798Z,14.90
2022-12-20T15:13:57.003Z,21.80
2022-12-20T15:16:26.572Z,33.60
2022-12-20T15:19:02.166Z,28.10
2022-12-20T15:21:33.740Z,24.30
2022-12-20T15:24:04.081Z,17.60
2022-12-20T15:26:32.095Z,23.00
2022-12-20T15:29:00.051Z,26.20
2022-12-20T15:31:33.309Z,26.60
2022-12-20T15:34:12.410Z,18.90
2022-12-20T15:36:40.434Z,14.90
2022-12-20T15:39:13.019Z,8.40
2022-12-20T15:41:46.510Z,12.10
2022-12-20T15:44:16.738Z,11.50
2022-12-20T15:46:45.032Z,14.30
2022-12-20T15:49:14.759Z,22.50
2022-12-20T15:51:44.506Z,22.30
2022-12-20T15:54:35.932Z,28.60
2022-12-20T15:57:07.735Z,64.60
2022-12-20T16:02:28.999Z,21.20
2022-12-20T16:04:59.027Z,17.00
2022-12-20T16:07:27.489Z,17.00
2022-12-20T16:09:55.528Z,18.60
2022-12-20T16:12:25.578Z,14.80
2022-12-20T16:14:53.786Z,36.70
2022-12-20T16:17:21.798Z,22.50
2022-12-20T16:19:50.230Z,30.10
2022-12-20T16:22:20.431Z,16.50
2022-12-20T16:24:48.752Z,34.50
2022-12-20T16:27:16.850Z,42.10
2022-12-20T16:29:45.703Z,34.10
2022-12-20T16:32:18.255Z,20.50
2022-12-20T16:34:46.505Z,12.10
2022-12-20T16:37:14.651Z,11.80
2022-12-20T16:39:42.758Z,14.90
2022-12-20T16:42:13.605Z,16.30
2022-12-20T16:44:44.737Z,14.50
2022-12-20T16:47:14.643Z,16.90
2022-12-20T16:49:51.573Z,20.20
2022-12-20T16:52:20.805Z,20.00
2022-12-20T16:54:48.976Z,22.70
2022-12-20T16:57:17.057Z,14.00
2022-12-20T16:59:45.171Z,15.70
2022-12-20T17:02:30.184Z,16.50
2022-12-20T17:04:59.425Z,21.50
2022-12-20T17:07:27.668Z,17.90
2022-12-20T17:09:56.376Z,17.30
2022-12-20T17:12:24.829Z,20.60
2022-12-20T17:14:52.995Z,19.40
2022-12-20T17:17:21.196Z,16.20
2022-12-20T17:19:49.393Z,22.90
2022-12-20T17:25:03.502Z,17.10
2022-12-20T17:27:31.685Z,14.40
2022-12-20T17:30:01.656Z,13.00
2022-12-20T17:32:31.020Z,11.90
2022-12-20T17:34:59.056Z,11.70
2022-12-20T17:37:28.149Z,11.90
2022-12-20T17:39:56.295Z,12.50
2022-12-20T17:42:30.627Z,14.30
2022-12-20T17:44:59.843Z,16.30
2022-12-20T17:47:27.903Z,12.10
2022-12-20T17:49:55.941Z,14.40
2022-12-20T17:52:23.983Z,17.00
2022-12-20T17:54:52.024Z,19.10
2022-12-20T17:57:20.220Z,15.90
2022-12-20T17:59:48.326Z,15.10
2022-12-20T18:02:21.437Z,13.60
2022-12-20T18:04:50.209Z,14.10
2022-12-20T18:07:18.402Z,10.70
2022-12-20T18:09:47.993Z,11.80
2022-12-20T18:12:16.283Z,11.30
2022-12-20T18:14:45.229Z,11.60
2022-12-20T18:17:13.578Z,13.50
2022-12-20T18:19:44.074Z,13.70
2022-12-20T18:22:12.288Z,13.20
2022-12-20T18:24:40.341Z,13.90
2022-12-20T18:27:08.415Z,13.70
2022-12-20T18:29:36.430Z,13.00
2022-12-20T18:32:04.756Z,15.60
2022-12-20T18:34:32.957Z,14.00
2022-12-20T18:37:02.235Z,16.40
2022-12-20T18:39:30.419Z,13.50
2022-12-20T18:41:58.423Z,13.20
2022-12-20T18:44:26.478Z,13.20
2022-12-20T18:46:54.621Z,13.20
2022-12-20T18:49:22.884Z,14.20
2022-12-20T18:51:50.899Z,12.90
2022-12-20T18:54:19.024Z,14.90
2022-12-20T18:56:49.273Z,12.10
2022-12-20T18:59:17.443Z,12.40
2022-12-20T19:01:45.818Z,12.00
2022-12-20T19:04:15.894Z,15.80
2022-12-20T19:06:46.218Z,15.20
2022-12-20T19:09:15.531Z,14.80
2022-12-20T19:11:43.688Z,11.90
2022-12-20T19:14:12.613Z,11.70
2022-12-20T19:16:40.823Z,12.20
2022-12-20T19:19:09.117Z,10.90
2022-12-20T19:21:38.225Z,11.40
2022-12-20T19:24:07.188Z,12.40
2022-12-20T19:26:36.643Z,10.80
2022-12-20T19:29:05.237Z,11.00
2022-12-20T19:31:34.564Z,10.00
2022-12-20T19:34:03.847Z,11.70
2022-12-20T19:36:34.850Z,11.70
2022-12-20T19:39:06.614Z,9.70
2022-12-20T19:41:35.900Z,11.70
2022-12-20T19:44:04.229Z,11.10
2022-12-20T19:46:32.955Z,11.60
2022-12-20T19:49:01.263Z,11.30
2022-12-20T19:51:29.803Z,13.10
2022-12-20T19:53:58.503Z,13.20
2022-12-20T19:56:28.551Z,12.60
2022-12-20T19:58:56.912Z,13.40
2022-12-20T20:01:26.028Z,12.20
2022-12-20T20:03:55.029Z,12.00
2022-12-20T20:06:23.510Z,9.30
2022-12-20T20:08:52.014Z,10.50
2022-12-20T20:11:21.209Z,13.10
2022-12-20T20:13:49.292Z,10.80
2022-12-20T20:16:22.205Z,11.60
2022-12-20T20:18:51.171Z,12.20
2022-12-20T20:21:22.034Z,11.50
2022-12-20T20:23:51.245Z,13.70
2022-12-20T20:26:21.382Z,12.90
2022-12-20T20:28:50.333Z,13.90
2022-12-20T20:31:18.962Z,11.90
2022-12-20T20:33:47.942Z,11.50
2022-12-20T20:36:21.039Z,13.60
2022-12-20T20:38:49.968Z,11.80
2022-12-20T20:41:18.233Z,12.40
2022-12-20T20:43:47.002Z,11.60
2022-12-20T20:46:15.826Z,10.70
2022-12-20T20:48:44.409Z,11.40
2022-12-20T20:51:12.900Z,11.30
2022-12-20T20:53:41.222Z,12.30
2022-12-20T20:56:09.941Z,11.50
2022-12-20T20:58:38.457Z,12.00
2022-12-20T21:01:08.853Z,12.20
2022-12-20T21:03:37.512Z,12.30
2022-12-20T21:06:38.689Z,11.20
2022-12-20T21:08:54.969Z,12.30
2022-12-20T21:11:23.214Z,12.90
2022-12-20T21:13:51.312Z,10.30
2022-12-20T21:16:21.070Z,9.60
2022-12-20T21:18:52.871Z,12.00
2022-12-20T21:21:21.246Z,12.70
2022-12-20T21:23:49.720Z,10.00
2022-12-20T21:26:18.436Z,11.20
2022-12-20T21:28:47.278Z,12.40
2022-12-20T21:31:16.916Z,17.40
2022-12-20T21:33:48.573Z,12.00
2022-12-20T21:36:18.185Z,12.70
2022-12-20T21:38:50.575Z,14.80
2022-12-20T21:41:20.235Z,16.90
2022-12-20T21:43:48.595Z,14.90
2022-12-20T21:46:16.785Z,27.50
2022-12-20T21:48:45.109Z,15.00
2022-12-20T21:51:14.863Z,11.90
2022-12-20T21:53:53.320Z,10.60
2022-12-20T21:56:21.887Z,10.60
2022-12-20T21:58:51.095Z,10.90
2022-12-20T22:01:21.374Z,9.80
2022-12-20T22:03:50.786Z,11.50
2022-12-20T22:06:19.443Z,9.90
2022-12-20T22:08:47.657Z,12.00
2022-12-20T22:11:17.118Z,12.60
2022-12-20T22:13:45.986Z,11.70
2022-12-20T22:16:14.254Z,10.60
2022-12-20T22:18:43.074Z,11.90
2022-12-20T22:21:13.034Z,11.80
2022-12-20T22:23:41.475Z,10.00
2022-12-20T22:26:11.183Z,10.00
2022-12-20T22:28:40.129Z,11.80
2022-12-20T22:31:09.340Z,8.50
2022-12-20T22:33:37.971Z,10.70
2022-12-20T22:36:06.525Z,9.90
2022-12-20T22:38:34.978Z,13.40
2022-12-20T22:41:17.097Z,13.20
2022-12-20T22:43:45.933Z,8.00
2022-12-20T22:46:30.280Z,10.20
2022-12-20T22:48:59.381Z,10.10
2022-12-20T22:51:31.052Z,11.00
2022-12-20T22:54:00.049Z,12.60
2022-12-20T22:56:28.119Z,9.80
2022-12-20T22:58:56.325Z,12.20
2022-12-20T23:01:25.187Z,12.80
2022-12-20T23:03:53.631Z,8.50
2022-12-20T23:06:21.970Z,9.50
2022-12-20T23:08:50.494Z,9.30
2022-12-20T23:11:42.143Z,11.30
2022-12-20T23:14:36.932Z,11.70
2022-12-20T23:17:05.875Z,11.00
2022-12-20T23:19:52.808Z,9.60
2022-12-20T23:22:40.645Z,10.10
2022-12-20T23:25:12.055Z,9.20
2022-12-20T23:27:40.957Z,11.00
2022-12-20T23:30:10.131Z,11.40
2022-12-20T23:32:38.426Z,12.30
2022-12-20T23:35:12.266Z,11.60
2022-12-20T23:37:40.739Z,9.70
2022-12-20T23:40:09.770Z,11.20
2022-12-20T23:42:37.803Z,11.60
2022-12-20T23:45:06.055Z,12.10
2022-12-20T23:47:34.022Z,11.00
2022-12-20T23:50:02.088Z,12.30
2022-12-20T23:52:30.167Z,12.40
2022-12-20T23:54:58.124Z,9.80
2022-12-20T23:57:28.784Z,11.50
2022-12-20T23:59:57.702Z,9.70
